Time;durP1;ratioP1;P1;durP2;ratioP2;P2;SDS_P1;SDS_P2;PMS_P1;PMS_P2;Temp;Humidity;BMP_temperature;BMP_pressure;BME280_temperature;BME280_humidity;BME280_pressure;Samples;Min_cycle;Max_cycle;Signal;HPM_P1;HPM_P2
2022/11/10 00:00:22;;;;;;;0.80;0.75;;;19.00;52.70;;;;;;5113097;28;20054;-11
2022/11/10 00:03:08;;;;;;;1.25;1.05;;;19.10;52.70;;;;;;5113316;28;20055;-11
2022/11/10 00:05:53;;;;;;;2.08;1.02;;;19.10;52.70;;;;;;5112714;28;20066;-11
2022/11/10 00:08:37;;;;;;;1.15;1.00;;;19.10;52.80;;;;;;5108721;28;20143;-11
2022/11/10 00:11:21;;;;;;;1.30;1.10;;;19.10;52.70;;;;;;5112941;28;20055;-11
2022/11/10 00:17:10;;;;;;;1.55;1.05;;;19.00;52.70;;;;;;5112535;28;20081;-11
2022/11/10 00:19:54;;;;;;;1.33;0.88;;;19.10;52.80;;;;;;5113142;28;20077;-11
2022/11/10 00:22:39;;;;;;;1.27;0.80;;;19.00;52.70;;;;;;5112833;28;20502;-11
2022/11/10 00:25:24;;;;;;;1.08;0.90;;;19.00;52.70;;;;;;5114396;28;20506;-11
2022/11/10 00:28:08;;;;;;;1.17;1.02;;;19.00;52.70;;;;;;5116180;28;20058;-11
2022/11/10 00:30:52;;;;;;;1.00;0.90;;;19.00;52.70;;;;;;5116236;28;20076;-11
2022/11/10 00:33:38;;;;;;;0.80;0.80;;;19.00;52.70;;;;;;5115925;28;20561;-11
2022/11/10 00:36:23;;;;;;;1.15;1.00;;;19.00;52.80;;;;;;5115897;28;20560;-11
2022/11/10 00:39:08;;;;;;;1.27;1.08;;;19.00;52.70;;;;;;5115686;28;20129;-11
2022/11/10 00:41:52;;;;;;;1.67;1.08;;;19.00;52.80;;;;;;5115756;28;20058;-11
2022/11/10 00:44:36;;;;;;;1.67;1.10;;;19.00;52.80;;;;;;5115683;28;20616;-11
2022/11/10 00:47:20;;;;;;;1.85;1.00;;;19.00;52.80;;;;;;5115207;28;20051;-11
2022/11/10 00:50:05;;;;;;;1.30;0.93;;;19.00;52.80;;;;;;5115530;28;20502;-11
2022/11/10 00:52:49;;;;;;;1.40;1.00;;;19.00;52.80;;;;;;5115629;28;20058;-11
2022/11/10 00:55:37;;;;;;;0.95;0.93;;;19.00;52.80;;;;;;5115556;28;20140;-11
2022/11/10 00:58:21;;;;;;;2.35;1.33;;;19.00;52.90;;;;;;5115467;28;20070;-11
2022/11/10 01:01:06;;;;;;;1.48;1.10;;;19.00;52.90;;;;;;5115491;28;20423;-11
2022/11/10 01:03:51;;;;;;;1.33;1.10;;;19.00;52.90;;;;;;5115499;28;20062;-11
2022/11/10 01:06:36;;;;;;;2.03;0.93;;;19.00;52.90;;;;;;5115415;28;20063;-11
2022/11/10 01:09:20;;;;;;;1.40;1.13;;;19.00;52.90;;;;;;5115567;28;20143;-11
2022/11/10 01:12:05;;;;;;;1.40;1.00;;;19.00;52.90;;;;;;5115602;28;20407;-11
2022/11/10 01:14:49;;;;;;;1.20;0.93;;;19.00;52.90;;;;;;5115803;28;20104;-11
2022/11/10 01:17:33;;;;;;;2.03;0.93;;;19.00;52.90;;;;;;5115590;28;20058;-11
2022/11/10 01:20:18;;;;;;;2.17;1.20;;;19.00;52.90;;;;;;5115448;28;20446;-11
2022/11/10 01:23:02;;;;;;;1.00;0.90;;;19.00;52.90;;;;;;5115165;28;20054;-11
2022/11/10 01:25:46;;;;;;;1.15;0.90;;;19.00;52.90;;;;;;5115414;28;20062;-11
2022/11/10 01:28:31;;;;;;;0.95;0.80;;;18.90;52.90;;;;;;5114723;28;20414;-11
2022/11/10 01:31:18;;;;;;;1.45;1.10;;;18.90;52.90;;;;;;5114926;28;20090;-11
2022/11/10 01:34:02;;;;;;;1.20;1.05;;;19.00;53.00;;;;;;5114751;28;20065;-11
2022/11/10 01:36:46;;;;;;;0.77;0.70;;;18.90;52.90;;;;;;5114388;28;20510;-11
2022/11/10 01:39:30;;;;;;;1.27;0.93;;;18.90;52.90;;;;;;5114694;28;20090;-11
2022/11/10 01:42:14;;;;;;;0.95;0.85;;;18.90;52.90;;;;;;5114739;28;20089;-11
2022/11/10 01:45:24;;;;;;;0.88;0.80;;;18.90;52.90;;;;;;5113349;28;20456;-11
2022/11/10 01:48:12;;;;;;;0.73;0.70;;;18.90;53.00;;;;;;5115037;28;20089;-11
2022/11/10 01:51:27;;;;;;;0.70;0.70;;;18.90;53.00;;;;;;5114696;28;20067;-11
2022/11/10 01:54:16;;;;;;;1.10;0.80;;;18.90;53.00;;;;;;5115011;28;20112;-11
2022/11/10 01:57:05;;;;;;;1.38;1.00;;;18.90;53.00;;;;;;5114518;28;20059;-11
2022/11/10 01:59:49;;;;;;;0.88;0.80;;;18.90;53.00;;;;;;5114815;28;20449;-11
2022/11/10 02:03:15;;;;;;;2.05;0.85;;;18.90;53.00;;;;;;5114496;28;20108;-11
2022/11/10 02:06:00;;;;;;;1.38;0.95;;;18.90;53.10;;;;;;5113925;28;20507;-11
2022/11/10 02:08:45;;;;;;;1.40;0.90;;;18.90;53.00;;;;;;5114065;28;20051;-11
2022/11/10 02:11:30;;;;;;;0.77;0.77;;;18.90;53.00;;;;;;5114379;28;20431;-11
2022/11/10 02:14:15;;;;;;;1.10;0.90;;;18.90;53.10;;;;;;5114329;28;20121;-11
2022/11/10 02:16:59;;;;;;;1.25;0.90;;;18.90;53.10;;;;;;5114068;28;20059;-11
2022/11/10 02:19:43;;;;;;;1.20;1.10;;;18.90;53.10;;;;;;5111038;28;20055;-11
2022/11/10 02:22:27;;;;;;;1.30;1.10;;;18.90;53.10;;;;;;5114731;28;20108;-11
2022/11/10 02:25:19;;;;;;;1.08;0.90;;;18.80;53.00;;;;;;5114456;28;20127;-11
2022/11/10 02:28:03;;;;;;;0.82;0.82;;;18.80;53.10;;;;;;5114054;28;20062;-11
2022/11/10 02:30:47;;;;;;;1.27;0.93;;;18.80;53.00;;;;;;5114375;28;20443;-11
2022/11/10 02:33:32;;;;;;;1.05;0.70;;;18.80;53.10;;;;;;5114367;28;20101;-11
2022/11/10 02:36:16;;;;;;;1.02;0.93;;;18.80;53.10;;;;;;5114213;28;20122;-11
2022/11/10 02:38:59;;;;;;;1.60;0.80;;;18.80;53.10;;;;;;5114026;28;20124;-11
2022/11/10 02:41:44;;;;;;;1.25;1.08;;;18.80;53.10;;;;;;5114210;28;20105;-11
2022/11/10 02:44:28;;;;;;;1.70;0.80;;;18.80;53.10;;;;;;5114122;28;20059;-11
2022/11/10 02:47:12;;;;;;;0.95;0.88;;;18.80;53.10;;;;;;5113448;28;20090;-11
2022/11/10 02:49:56;;;;;;;1.20;0.95;;;18.80;53.10;;;;;;5113681;28;20077;-11
2022/11/10 02:52:40;;;;;;;1.52;0.80;;;18.80;53.10;;;;;;5113758;28;20117;-11
2022/11/10 02:55:24;;;;;;;1.25;1.00;;;18.80;53.10;;;;;;5113952;28;20098;-11
2022/11/10 02:58:08;;;;;;;0.80;0.80;;;18.90;53.20;;;;;;5113387;28;20132;-11
2022/11/10 03:00:52;;;;;;;1.35;0.88;;;18.80;53.10;;;;;;5113932;28;20159;-11
2022/11/10 03:03:36;;;;;;;0.90;0.80;;;18.80;53.10;;;;;;5113604;28;20104;-11
2022/11/10 03:06:20;;;;;;;1.15;0.90;;;18.80;53.20;;;;;;5113792;28;20490;-11
2022/11/10 03:09:04;;;;;;;1.48;1.10;;;18.80;53.20;;;;;;5113564;28;20046;-11
2022/11/10 03:11:48;;;;;;;2.20;1.48;;;18.80;53.20;;;;;;5109830;28;20058;-11
2022/11/10 03:14:32;;;;;;;0.93;0.88;;;18.80;53.20;;;;;;5113415;28;20062;-11
2022/11/10 03:17:16;;;;;;;0.93;0.88;;;18.80;53.20;;;;;;5113337;28;20062;-11
2022/11/10 03:20:01;;;;;;;1.10;0.80;;;18.80;53.20;;;;;;5113335;28;20081;-11
2022/11/10 03:22:45;;;;;;;1.55;1.00;;;18.80;53.20;;;;;;5113299;28;20541;-11
2022/11/10 03:25:29;;;;;;;1.08;0.98;;;18.80;53.20;;;;;;5113258;28;20132;-11
2022/11/10 03:28:13;;;;;;;1.05;0.80;;;18.80;53.20;;;;;;5113289;28;20080;-11
2022/11/10 03:30:57;;;;;;;2.58;0.93;;;18.80;53.20;;;;;;5113467;28;20051;-11
2022/11/10 03:33:41;;;;;;;1.58;0.93;;;18.80;53.20;;;;;;5113116;28;20105;-11
2022/11/10 03:36:25;;;;;;;0.80;0.80;;;18.80;53.20;;;;;;5112317;28;20112;-11
2022/11/10 03:39:09;;;;;;;1.75;0.88;;;18.80;53.20;;;;;;5112961;28;20059;-11
2022/11/10 03:41:54;;;;;;;1.60;0.95;;;18.80;53.20;;;;;;5113605;28;20073;-11
2022/11/10 03:44:37;;;;;;;0.98;0.88;;;18.80;53.30;;;;;;5113277;28;20073;-11
2022/11/10 03:47:22;;;;;;;1.00;0.88;;;18.70;53.20;;;;;;5112813;28;20529;-11
2022/11/10 03:50:06;;;;;;;0.85;0.75;;;18.80;53.30;;;;;;5112811;28;20074;-11
2022/11/10 03:52:50;;;;;;;2.08;0.80;;;18.80;53.30;;;;;;5113220;28;20059;-11
2022/11/10 03:55:34;;;;;;;1.23;0.85;;;18.80;53.00;;;;;;5112867;28;20067;-11
2022/11/10 03:58:18;;;;;;;0.85;0.80;;;18.90;52.90;;;;;;5112800;28;20457;-11
2022/11/10 04:01:03;;;;;;;2.28;0.93;;;19.00;52.70;;;;;;5115719;28;20100;-11
2022/11/10 04:03:47;;;;;;;0.88;0.70;;;19.00;52.60;;;;;;5116413;28;20474;-11
2022/11/10 04:09:34;;;;;;;1.13;0.85;;;19.10;52.50;;;;;;5116664;28;20063;-11
2022/11/10 04:18:25;;;;;;;1.00;0.90;;;19.20;52.10;;;;;;5116083;28;20101;-11
2022/11/10 04:21:11;;;;;;;1.15;0.80;;;19.30;52.10;;;;;;5116162;28;20055;-11
2022/11/10 04:23:55;;;;;;;1.15;0.90;;;19.30;52.00;;;;;;5116374;28;20103;-11
2022/11/10 04:26:41;;;;;;;1.02;0.77;;;19.30;51.90;;;;;;5116089;28;20120;-11
2022/11/10 04:29:25;;;;;;;1.00;0.90;;;19.30;51.80;;;;;;5115853;28;20057;-11
2022/11/10 04:32:09;;;;;;;1.15;0.88;;;19.40;51.80;;;;;;5115969;28;20067;-11
2022/11/10 04:34:53;;;;;;;1.13;0.95;;;19.40;51.70;;;;;;5115818;28;20142;-11
2022/11/10 04:37:37;;;;;;;1.40;0.98;;;19.40;51.60;;;;;;5115795;28;20101;-11
2022/11/10 04:40:21;;;;;;;0.88;0.80;;;19.40;51.60;;;;;;5115757;28;20418;-11
2022/11/10 04:43:05;;;;;;;1.52;0.95;;;19.50;51.50;;;;;;5116098;28;20453;-11
2022/11/10 04:45:49;;;;;;;1.15;0.90;;;19.50;51.40;;;;;;5115813;28;20188;-11
2022/11/10 04:48:34;;;;;;;1.52;1.00;;;19.60;51.40;;;;;;5115768;28;20063;-11
2022/11/10 04:51:21;;;;;;;1.25;1.00;;;19.60;51.30;;;;;;5116206;28;20062;-11
2022/11/10 04:54:06;;;;;;;1.23;1.00;;;19.60;51.10;;;;;;5112783;28;20147;-11
2022/11/10 04:56:50;;;;;;;1.15;0.82;;;19.60;51.00;;;;;;5115910;28;20108;-11
2022/11/10 04:59:34;;;;;;;1.90;0.95;;;19.70;51.10;;;;;;5115809;28;20536;-11
2022/11/10 05:02:18;;;;;;;1.85;1.00;;;19.70;51.00;;;;;;5115731;28;20184;-11
2022/11/10 05:05:02;;;;;;;1.42;0.90;;;19.70;51.00;;;;;;5115737;28;20047;-11
2022/11/10 05:07:47;;;;;;;1.38;0.70;;;19.70;50.90;;;;;;5115390;28;20142;-11
2022/11/10 05:10:33;;;;;;;1.10;0.80;;;19.80;50.90;;;;;;5114951;28;20054;-11
2022/11/10 05:13:17;;;;;;;1.65;0.82;;;19.80;50.90;;;;;;5115229;28;20062;-11
2022/11/10 05:16:01;;;;;;;1.52;0.90;;;19.80;50.80;;;;;;5115530;28;20059;-11
2022/11/10 05:18:46;;;;;;;1.65;0.80;;;19.80;50.70;;;;;;5114925;28;20135;-11
2022/11/10 05:21:31;;;;;;;1.10;0.85;;;19.80;50.80;;;;;;5113941;28;20070;-11
2022/11/10 05:24:14;;;;;;;1.52;1.20;;;19.80;50.90;;;;;;5115428;28;20077;-11
2022/11/10 05:26:58;;;;;;;0.85;0.73;;;19.80;50.90;;;;;;5115347;28;20100;-11
2022/11/10 05:29:43;;;;;;;1.33;0.82;;;19.80;50.90;;;;;;5115003;28;20058;-11
2022/11/10 05:32:27;;;;;;;0.80;0.80;;;19.80;50.90;;;;;;5115277;28;20082;-11
2022/11/10 05:35:10;;;;;;;1.73;0.90;;;19.80;50.90;;;;;;5114949;28;20139;-11
2022/11/10 05:37:54;;;;;;;1.08;0.80;;;19.80;50.90;;;;;;5112037;28;20058;-11
2022/11/10 05:40:38;;;;;;;1.08;0.80;;;19.80;50.90;;;;;;5114095;28;20143;-11
2022/11/10 05:43:22;;;;;;;1.83;1.00;;;19.80;50.90;;;;;;5115088;28;20050;-11
2022/11/10 05:46:07;;;;;;;0.95;0.80;;;19.80;50.90;;;;;;5115032;28;20062;-11
2022/11/10 05:48:50;;;;;;;1.20;0.77;;;19.80;50.90;;;;;;5114683;28;20431;-11
2022/11/10 05:51:36;;;;;;;1.17;0.90;;;19.80;50.90;;;;;;5114673;28;20066;-11
2022/11/10 05:54:20;;;;;;;1.23;1.08;;;19.80;50.90;;;;;;5114900;28;20108;-11
2022/11/10 05:57:04;;;;;;;1.13;0.80;;;19.80;50.90;;;;;;5114482;28;20065;-11
2022/11/10 05:59:48;;;;;;;1.13;1.02;;;19.80;50.90;;;;;;5114394;28;20574;-11
2022/11/10 06:02:32;;;;;;;1.42;0.80;;;19.80;50.90;;;;;;5114735;28;20128;-11
2022/11/10 06:05:16;;;;;;;1.08;0.80;;;19.80;50.90;;;;;;5114681;28;20058;-11
2022/11/10 06:08:02;;;;;;;2.97;1.45;;;19.80;50.90;;;;;;5114484;28;20536;-11
2022/11/10 06:10:47;;;;;;;0.88;0.80;;;19.70;50.90;;;;;;5114618;28;20064;-11
2022/11/10 06:13:31;;;;;;;1.23;1.02;;;19.70;50.90;;;;;;5111892;28;20058;-11
2022/11/10 06:16:15;;;;;;;1.98;1.17;;;19.80;50.90;;;;;;5114544;28;20119;-11
2022/11/10 06:19:00;;;;;;;1.80;0.93;;;19.80;50.90;;;;;;5111001;28;20085;-11
2022/11/10 06:21:44;;;;;;;1.20;1.05;;;19.80;50.90;;;;;;5114801;28;20042;-11
2022/11/10 06:24:28;;;;;;;0.80;0.80;;;19.80;50.90;;;;;;5114419;28;20055;-11
2022/11/10 06:27:12;;;;;;;1.23;0.90;;;19.80;50.90;;;;;;5110846;28;20104;-11
2022/11/10 06:29:56;;;;;;;1.20;1.00;;;19.80;50.90;;;;;;5113895;28;20169;-11
2022/11/10 06:32:42;;;;;;;1.35;1.10;;;19.80;50.90;;;;;;5114081;28;20058;-11
2022/11/10 06:35:27;;;;;;;1.80;1.02;;;19.80;50.90;;;;;;5114216;28;20057;-11
2022/11/10 06:38:11;;;;;;;2.03;0.90;;;19.80;50.90;;;;;;5114121;28;20070;-11
2022/11/10 06:40:55;;;;;;;1.30;1.00;;;19.80;50.90;;;;;;5113930;28;20059;-11
2022/11/10 06:43:39;;;;;;;1.25;1.02;;;19.70;50.90;;;;;;5113844;28;20090;-11
2022/11/10 06:46:24;;;;;;;1.23;0.80;;;19.80;50.90;;;;;;5113778;28;20062;-11
2022/11/10 06:49:09;;;;;;;1.48;1.05;;;19.80;50.90;;;;;;5113732;28;20113;-11
2022/11/10 06:51:53;;;;;;;1.00;0.85;;;19.80;50.90;;;;;;5114023;28;20462;-11
2022/11/10 06:54:36;;;;;;;1.95;1.08;;;19.80;50.90;;;;;;5113576;28;20098;-11
2022/11/10 06:57:20;;;;;;;1.92;1.00;;;19.80;50.80;;;;;;5113615;28;20536;-11
2022/11/10 07:00:05;;;;;;;1.27;1.02;;;19.80;50.80;;;;;;5110379;28;20081;-11
2022/11/10 07:03:01;;;;;;;2.42;1.05;;;19.80;50.80;;;;;;5114067;28;20420;-11
2022/11/10 07:05:45;;;;;;;1.00;0.90;;;19.90;50.70;;;;;;5113412;28;20058;-11
2022/11/10 07:08:29;;;;;;;1.35;1.10;;;19.80;50.80;;;;;;5113373;28;20497;-11
2022/11/10 07:11:13;;;;;;;1.77;1.10;;;19.80;50.80;;;;;;5113059;28;20070;-11
2022/11/10 07:13:57;;;;;;;1.48;0.90;;;19.80;50.80;;;;;;5113324;28;20185;-11
2022/11/10 07:16:41;;;;;;;1.92;1.10;;;19.80;50.80;;;;;;5112823;28;20463;-11
2022/11/10 07:19:25;;;;;;;1.58;1.30;;;19.80;50.90;;;;;;5112306;28;20525;-11
2022/11/10 07:22:09;;;;;;;1.33;1.00;;;19.90;50.80;;;;;;5112430;28;20093;-11
2022/11/10 07:24:54;;;;;;;1.40;1.00;;;19.90;50.70;;;;;;5112367;28;20131;-11
2022/11/10 07:27:38;;;;;;;1.20;0.90;;;19.90;50.70;;;;;;5112021;28;20066;-11
2022/11/10 07:30:23;;;;;;;2.15;1.15;;;19.90;50.70;;;;;;5112307;28;20050;-11
2022/11/10 07:33:13;;;;;;;1.52;1.05;;;19.90;50.70;;;;;;5112536;28;20499;-11
2022/11/10 07:35:59;;;;;;;1.33;1.00;;;19.90;50.70;;;;;;5111611;28;20078;-11
2022/11/10 07:38:44;;;;;;;0.80;0.80;;;19.90;51.30;;;;;;5110874;28;20101;-11
2022/11/10 07:41:30;;;;;;;1.67;1.08;;;19.90;50.70;;;;;;5112604;28;20062;-11
2022/11/10 07:44:14;;;;;;;1.27;1.00;;;19.90;50.70;;;;;;5112490;28;20555;-11
2022/11/10 07:46:58;;;;;;;1.20;1.10;;;19.90;50.60;;;;;;5110256;28;20407;-11
2022/11/10 07:49:42;;;;;;;2.15;1.40;;;19.90;50.70;;;;;;5111950;28;20503;-11
2022/11/10 07:52:27;;;;;;;1.70;1.10;;;19.90;50.60;;;;;;5112086;28;20051;-11
2022/11/10 07:55:11;;;;;;;2.25;1.08;;;20.00;50.70;;;;;;5112404;28;20535;-10
2022/11/10 07:57:58;;;;;;;1.48;1.15;;;19.90;50.60;;;;;;5112773;28;20046;-10
2022/11/10 08:00:44;;;;;;;1.20;1.10;;;19.90;50.60;;;;;;5112135;28;20077;-10
2022/11/10 08:03:29;;;;;;;2.72;1.15;;;20.00;50.70;;;;;;5111979;28;20406;-10
2022/11/10 08:06:13;;;;;;;1.40;1.30;;;20.00;50.60;;;;;;5112157;28;20073;-11
2022/11/10 08:09:00;;;;;;;2.40;1.02;;;20.00;50.60;;;;;;5111274;28;20082;-10
2022/11/10 08:11:45;;;;;;;1.27;1.02;;;20.00;50.60;;;;;;5112395;28;20547;-11
2022/11/10 08:14:30;;;;;;;1.15;1.00;;;20.00;51.10;;;;;;5109017;28;20096;-10
2022/11/10 08:17:14;;;;;;;1.55;1.15;;;20.00;50.50;;;;;;5112749;28;20054;-10
2022/11/10 08:19:59;;;;;;;1.13;1.02;;;20.00;50.50;;;;;;5112683;28;20043;-10
2022/11/10 08:22:44;;;;;;;1.17;0.90;;;20.00;50.50;;;;;;5112595;28;20081;-10
2022/11/10 08:25:30;;;;;;;1.60;1.20;;;20.00;50.50;;;;;;5112584;28;20047;-10
2022/11/10 08:28:16;;;;;;;2.00;1.30;;;20.00;51.10;;;;;;5109080;28;20059;-10
2022/11/10 08:31:02;;;;;;;1.25;1.13;;;20.00;50.60;;;;;;5111993;28;20042;-11
2022/11/10 08:33:47;;;;;;;1.08;1.00;;;20.00;50.60;;;;;;5111765;28;20124;-10
2022/11/10 08:36:32;;;;;;;1.48;1.10;;;20.00;50.60;;;;;;5112143;28;20187;-10
2022/11/10 08:39:17;;;;;;;1.13;1.02;;;20.00;50.60;;;;;;5112095;28;20058;-10
2022/11/10 08:42:01;;;;;;;2.53;1.55;;;20.00;50.50;;;;;;5112050;28;20055;-10
2022/11/10 08:44:45;;;;;;;1.40;1.00;;;20.00;50.50;;;;;;5112374;28;20427;-11
2022/11/10 08:47:30;;;;;;;0.90;0.90;;;20.00;50.50;;;;;;5114054;28;20051;-12
2022/11/10 08:50:14;;;;;;;1.42;1.20;;;20.00;50.50;;;;;;5115098;28;20089;-11
2022/11/10 08:53:01;;;;;;;2.30;1.08;;;20.00;50.50;;;;;;5115311;28;20062;-11
2022/11/10 08:55:47;;;;;;;1.25;1.15;;;20.00;50.70;;;;;;5115528;28;20063;-11
2022/11/10 08:58:31;;;;;;;1.95;1.20;;;20.10;50.60;;;;;;5115389;28;20058;-11
2022/11/10 09:01:15;;;;;;;1.55;1.10;;;20.20;50.30;;;;;;5115252;28;20104;-11
2022/11/10 09:03:59;;;;;;;4.55;1.45;;;20.40;50.20;;;;;;5115066;28;20147;-11
2022/11/10 09:06:43;;;;;;;3.55;0.98;;;20.40;50.20;;;;;;5114969;28;20109;-10
2022/11/10 09:09:29;;;;;;;5.80;1.85;;;20.40;50.10;;;;;;5114781;28;20067;-10
2022/11/10 09:12:14;;;;;;;1.95;1.20;;;20.40;50.10;;;;;;5115133;28;20125;-10
2022/11/10 09:14:58;;;;;;;2.22;1.30;;;20.50;50.10;;;;;;5114957;28;20067;-10
2022/11/10 09:17:44;;;;;;;2.45;1.52;;;20.50;50.00;;;;;;5114688;28;20055;-10
2022/11/10 09:20:30;;;;;;;2.45;1.27;;;20.50;50.00;;;;;;5114706;28;20498;-10
2022/11/10 09:23:17;;;;;;;6.90;1.85;;;20.60;50.00;;;;;;5114938;28;20065;-10
2022/11/10 09:26:01;;;;;;;3.90;1.50;;;20.60;49.90;;;;;;5114996;28;20055;-11
2022/11/10 09:28:45;;;;;;;3.47;1.70;;;20.60;49.80;;;;;;5112352;28;20142;-11
2022/11/10 09:31:30;;;;;;;2.78;1.52;;;20.70;49.90;;;;;;5114853;28;20469;-12
2022/11/10 09:34:14;;;;;;;3.65;1.73;;;20.70;49.80;;;;;;5114539;28;20054;-11
2022/11/10 09:36:59;;;;;;;3.38;1.90;;;20.70;49.80;;;;;;5114284;28;20540;-12
2022/11/10 09:39:44;;;;;;;2.47;1.55;;;20.80;49.80;;;;;;5114397;28;20058;-12
2022/11/10 09:42:39;;;;;;;3.75;1.35;;;20.80;49.80;;;;;;5112256;28;20104;-12
2022/11/10 09:45:32;;;;;;;4.72;1.65;;;20.80;49.90;;;;;;5114522;28;20082;-12
2022/11/10 09:48:24;;;;;;;3.13;1.50;;;20.80;49.90;;;;;;5114211;28;20997;-12
2022/11/10 09:51:15;;;;;;;2.25;1.50;;;20.90;50.50;;;;;;5111105;28;20141;-12
2022/11/10 09:54:21;;;;;;;4.35;1.73;;;20.90;49.80;;;;;;5114215;28;20058;-11
2022/11/10 09:57:11;;;;;;;2.38;1.45;;;20.90;49.80;;;;;;5113729;28;20082;-11
2022/11/10 09:59:56;;;;;;;2.22;1.60;;;20.90;49.80;;;;;;5113863;28;20134;-10
2022/11/10 10:03:03;;;;;;;3.92;2.13;;;20.90;49.80;;;;;;5114343;28;20046;-11
2022/11/10 10:06:02;;;;;;;3.53;1.60;;;21.00;49.70;;;;;;5114336;28;20059;-11
2022/11/10 10:09:14;;;;;;;4.55;1.85;;;21.00;49.60;;;;;;5113636;28;20059;-11
2022/11/10 10:12:19;;;;;;;3.20;2.10;;;21.00;49.50;;;;;;5113788;28;20063;-11
2022/11/10 10:15:20;;;;;;;3.28;2.08;;;21.00;49.50;;;;;;5112656;28;20177;-11
2022/11/10 10:18:25;;;;;;;4.57;1.88;;;21.00;49.50;;;;;;5113669;28;20085;-11
2022/11/10 10:21:41;;;;;;;5.45;1.98;;;21.00;49.50;;;;;;5113582;28;20108;-11
2022/11/10 10:24:26;;;;;;;5.65;1.73;;;21.00;50.00;;;;;;5112428;28;20062;-14
2022/11/10 10:27:18;;;;;;;4.90;1.88;;;21.00;49.50;;;;;;5111175;28;20054;-13
2022/11/10 10:30:19;;;;;;;4.22;2.20;;;21.00;49.40;;;;;;5108243;28;20660;-13
2022/11/10 10:33:17;;;;;;;4.47;2.10;;;21.00;49.50;;;;;;5112878;28;20548;-12
2022/11/10 10:36:08;;;;;;;4.68;2.15;;;21.00;49.60;;;;;;5112860;28;20051;-12
2022/11/10 10:39:01;;;;;;;4.53;2.13;;;21.00;49.80;;;;;;5112814;28;20058;-11
2022/11/10 10:41:45;;;;;;;3.22;1.80;;;21.00;49.80;;;;;;5113851;28;20054;-11
2022/11/10 10:44:30;;;;;;;5.15;2.08;;;21.00;49.80;;;;;;5113836;28;20066;-11
2022/11/10 10:47:14;;;;;;;8.95;2.17;;;21.00;49.90;;;;;;5112895;28;20101;-11
2022/11/10 10:50:19;;;;;;;6.60;2.22;;;21.00;50.00;;;;;;5113639;28;20077;-11
2022/11/10 10:53:15;;;;;;;5.00;2.17;;;21.00;50.00;;;;;;5109948;28;20131;-11
2022/11/10 10:56:18;;;;;;;5.40;2.22;;;21.00;49.90;;;;;;5113382;28;20526;-11
2022/11/10 10:59:04;;;;;;;4.85;1.88;;;21.10;50.00;;;;;;5113466;28;20095;-10
2022/11/10 11:01:55;;;;;;;3.20;1.90;;;21.10;50.00;;;;;;5113280;28;20050;-11
2022/11/10 11:04:41;;;;;;;6.40;1.83;;;21.00;50.00;;;;;;5113207;28;20116;-11
2022/11/10 11:07:25;;;;;;;3.25;1.85;;;21.00;50.20;;;;;;5112561;28;20415;-12
2022/11/10 11:10:21;;;;;;;4.88;2.20;;;21.00;50.20;;;;;;5111564;28;20352;-11
2022/11/10 11:13:20;;;;;;;4.47;2.05;;;21.00;50.30;;;;;;5112293;28;20513;-11
2022/11/10 11:16:07;;;;;;;5.55;2.03;;;20.90;50.40;;;;;;5111984;28;20054;-11
2022/11/10 11:18:52;;;;;;;4.55;1.83;;;21.00;50.40;;;;;;5112358;28;20092;-13
2022/11/10 11:21:55;;;;;;;9.18;2.35;;;21.00;50.40;;;;;;5112396;28;20104;-11
2022/11/10 11:24:58;;;;;;;7.47;2.22;;;21.00;50.40;;;;;;5112936;28;20058;-11
2022/11/10 11:27:52;;;;;;;3.15;1.95;;;21.00;50.50;;;;;;5112472;28;20062;-11
2022/11/10 11:30:52;;;;;;;4.55;2.03;;;21.00;50.60;;;;;;5112465;28;20046;-11
2022/11/10 11:33:48;;;;;;;5.45;2.20;;;21.00;50.60;;;;;;5111118;28;20461;-11
2022/11/10 11:36:53;;;;;;;4.40;2.03;;;21.00;50.60;;;;;;5096836;28;20177;-11
2022/11/10 11:40:03;;;;;;;5.30;1.90;;;21.00;50.70;;;;;;5112368;28;20054;-11
2022/11/10 11:43:06;;;;;;;3.80;1.80;;;21.00;50.70;;;;;;5111950;28;20515;-11
2022/11/10 11:46:13;;;;;;;3.80;1.77;;;21.00;50.70;;;;;;5112314;28;20055;-12
2022/11/10 11:49:28;;;;;;;4.57;2.08;;;20.90;50.70;;;;;;5108977;28;20074;-11
2022/11/10 11:52:28;;;;;;;4.60;1.90;;;21.00;50.90;;;;;;5112389;28;20100;-11
2022/11/10 11:55:24;;;;;;;4.43;1.85;;;20.90;50.90;;;;;;5112390;28;20075;-11
2022/11/10 11:58:39;;;;;;;4.93;1.90;;;21.00;50.90;;;;;;5112064;28;20054;-11
2022/11/10 12:01:30;;;;;;;6.82;1.85;;;20.90;50.90;;;;;;5112025;28;20547;-11
2022/11/10 12:04:32;;;;;;;5.68;1.88;;;20.90;50.90;;;;;;5109271;28;20399;-11
2022/11/10 12:07:39;;;;;;;3.78;2.08;;;21.00;51.00;;;;;;5112234;28;20147;-11
2022/11/10 12:10:58;;;;;;;7.18;2.33;;;20.90;51.00;;;;;;5112155;28;20055;-11
2022/11/10 12:13:54;;;;;;;10.52;1.95;;;20.90;51.00;;;;;;5112483;28;20532;-11
2022/11/10 12:16:41;;;;;;;6.43;2.28;;;21.00;51.00;;;;;;5111856;28;20128;-11
2022/11/10 12:19:58;;;;;;;4.60;2.13;;;21.00;51.10;;;;;;5111883;28;20140;-11
2022/11/10 12:22:54;;;;;;;6.05;2.00;;;21.00;51.10;;;;;;5102472;28;20050;-11
2022/11/10 12:25:55;;;;;;;5.85;1.95;;;21.00;51.10;;;;;;5114333;28;20059;-11
2022/11/10 12:28:48;;;;;;;6.35;2.03;;;21.00;51.20;;;;;;5099660;28;20069;-12
2022/11/10 12:31:37;;;;;;;3.20;1.80;;;21.00;51.10;;;;;;5115192;28;20062;-11
2022/11/10 12:34:27;;;;;;;5.13;2.33;;;21.00;51.00;;;;;;5114991;28;20093;-11
2022/11/10 12:37:18;;;;;;;5.45;2.10;;;20.90;50.90;;;;;;5115062;28;20088;-11
2022/11/10 12:40:13;;;;;;;6.82;2.40;;;20.90;51.00;;;;;;5115256;28;20086;-11
2022/11/10 12:43:00;;;;;;;4.22;2.00;;;20.90;51.00;;;;;;5115569;28;20074;-11
2022/11/10 12:45:51;;;;;;;8.23;2.22;;;20.90;51.10;;;;;;5115811;28;20059;-11
2022/11/10 12:49:06;;;;;;;6.27;2.40;;;20.90;51.10;;;;;;5115240;28;20062;-11
2022/11/10 12:52:04;;;;;;;5.85;2.22;;;20.90;51.10;;;;;;5115253;28;20326;-11
2022/11/10 12:54:48;;;;;;;8.00;2.13;;;20.90;51.20;;;;;;5115368;28;20050;-11
2022/11/10 12:57:33;;;;;;;7.38;2.80;;;20.90;51.20;;;;;;5100129;28;20449;-11
2022/11/10 13:00:18;;;;;;;13.38;3.72;;;20.90;51.40;;;;;;5115285;28;20058;-11
2022/11/10 13:03:02;;;;;;;7.32;2.30;;;20.90;51.50;;;;;;5115403;28;20053;-12
2022/11/10 13:05:55;;;;;;;8.63;3.20;;;20.90;51.40;;;;;;5115375;28;20512;-11
2022/11/10 13:08:41;;;;;;;7.43;2.55;;;20.80;51.40;;;;;;5115065;28;20059;-11
2022/11/10 13:11:30;;;;;;;8.10;2.67;;;20.80;51.40;;;;;;5115290;28;20058;-12
2022/11/10 13:14:29;;;;;;;9.77;2.97;;;20.90;51.50;;;;;;5115240;28;20066;-11
2022/11/10 13:17:27;;;;;;;8.32;2.50;;;20.90;51.40;;;;;;5114770;28;20454;-11
2022/11/10 13:20:37;;;;;;;9.75;2.83;;;20.90;51.50;;;;;;5114759;28;20108;-11
2022/11/10 13:23:22;;;;;;;7.37;2.77;;;20.80;51.50;;;;;;5115006;28;20449;-11
2022/11/10 13:26:32;;;;;;;14.18;2.90;;;20.80;51.40;;;;;;5115026;28;20116;-11
2022/11/10 13:29:46;;;;;;;10.68;3.05;;;20.80;51.50;;;;;;5114573;28;20090;-11
2022/11/10 13:32:34;;;;;;;11.48;2.92;;;20.80;51.50;;;;;;5113484;28;20054;-11
2022/11/10 13:35:27;;;;;;;11.27;3.47;;;20.80;51.50;;;;;;5114679;28;20055;-11
2022/11/10 13:38:30;;;;;;;10.48;3.47;;;20.80;51.60;;;;;;5114622;28;20054;-11
2022/11/10 13:41:15;;;;;;;13.52;4.03;;;20.80;51.60;;;;;;5114367;28;20050;-11
2022/11/10 13:44:02;;;;;;;10.80;3.95;;;20.80;51.70;;;;;;5114681;28;20089;-11
2022/11/10 13:47:03;;;;;;;13.88;3.70;;;20.80;51.70;;;;;;5114818;28;20116;-12
2022/11/10 13:50:05;;;;;;;12.57;3.50;;;20.80;51.80;;;;;;5113421;28;20059;-11
2022/11/10 13:53:14;;;;;;;20.35;5.05;;;20.80;51.70;;;;;;5114551;28;20054;-11
2022/11/10 13:56:26;;;;;;;10.52;3.60;;;20.80;51.80;;;;;;5114502;28;20058;-11
2022/11/10 13:59:23;;;;;;;14.68;4.13;;;20.80;51.80;;;;;;5114314;28;20082;-11
2022/11/10 14:02:32;;;;;;;11.13;3.95;;;20.80;51.80;;;;;;5114187;28;20050;-11
2022/11/10 14:05:29;;;;;;;16.60;5.05;;;20.80;51.80;;;;;;5114494;28;20059;-11
2022/11/10 14:08:19;;;;;;;12.73;4.47;;;20.80;51.80;;;;;;5111376;28;20506;-10
2022/11/10 14:11:11;;;;;;;14.93;4.28;;;20.80;51.80;;;;;;5114076;28;20082;-11
2022/11/10 14:14:19;;;;;;;13.63;4.35;;;20.80;52.30;;;;;;5114421;28;20066;-11
2022/11/10 14:17:17;;;;;;;15.40;4.43;;;20.80;51.80;;;;;;5114241;28;20146;-11
2022/11/10 14:20:03;;;;;;;12.38;4.18;;;20.80;51.80;;;;;;5113457;28;20081;-12
2022/11/10 14:22:49;;;;;;;13.35;4.15;;;20.80;51.80;;;;;;5111529;28;20301;-12
2022/11/10 14:25:40;;;;;;;13.25;4.30;;;20.80;51.80;;;;;;5111475;28;20404;-12
2022/11/10 14:28:33;;;;;;;14.07;4.63;;;20.80;52.40;;;;;;5111929;28;20416;-11
2022/11/10 14:31:23;;;;;;;13.43;4.38;;;20.80;51.80;;;;;;5111849;28;20090;-12
2022/11/10 14:34:14;;;;;;;13.35;4.07;;;20.80;51.80;;;;;;5112045;28;20501;-12
2022/11/10 14:37:00;;;;;;;;;;;20.80;51.80;;;;;;5098729;28;20548;-11
2022/11/10 14:39:45;;;;;;;14.27;3.95;;;20.90;51.80;;;;;;5114188;28;19984;-11
2022/11/10 14:42:31;;;;;;;10.35;4.15;;;20.90;51.80;;;;;;5113786;28;20117;-11
2022/11/10 14:45:26;;;;;;;12.07;4.38;;;20.80;51.80;;;;;;5113387;28;20506;-11
2022/11/10 14:48:18;;;;;;;11.27;4.18;;;20.90;51.80;;;;;;5113506;28;20062;-11